Time;durP1;ratioP1;P1;durP2;ratioP2;P2;SDS_P1;SDS_P2;PMS_P1;PMS_P2;Temp;Humidity;BMP_temperature;BMP_pressure;BME280_temperature;BME280_humidity;BME280_pressure;Samples;Min_cycle;Max_cycle;Signal;HPM_P1;HPM_P2
2023/12/09 00:00:52;;;;;;;18.48;4.70;;;;;;;;;;5282692;28;20017;-75
2023/12/09 00:03:23;;;;;;;21.05;5.55;;;;;;;;;;5281403;28;20466;-76
2023/12/09 00:05:55;;;;;;;19.58;4.30;;;;;;;;;;5282481;28;20035;-75
2023/12/09 00:08:26;;;;;;;16.25;4.60;;;;;;;;;;5282153;28;20134;-76
2023/12/09 00:10:57;;;;;;;22.23;5.15;;;;;;;;;;5282093;28;20036;-76
2023/12/09 00:13:30;;;;;;;16.73;4.15;;;;;;;;;;5284142;28;20020;-76
2023/12/09 00:16:01;;;;;;;18.70;5.82;;;;;;;;;;5284312;28;20405;-76
2023/12/09 00:18:33;;;;;;;15.13;4.72;;;;;;;;;;5283533;28;20023;-76
2023/12/09 00:21:04;;;;;;;16.40;4.20;;;;;;;;;;5284321;28;20024;-75
2023/12/09 00:23:35;;;;;;;22.88;5.93;;;;;;;;;;5284164;28;20026;-76
2023/12/09 00:26:06;;;;;;;21.40;4.43;;;;;;;;;;5283534;28;20479;-76
2023/12/09 00:28:38;;;;;;;15.30;4.88;;;;;;;;;;5284057;28;20056;-76
2023/12/09 00:31:09;;;;;;;17.48;4.47;;;;;;;;;;5283970;28;20024;-75
2023/12/09 00:33:40;;;;;;;18.48;5.18;;;;;;;;;;5283290;28;20159;-76
2023/12/09 00:36:11;;;;;;;20.40;4.95;;;;;;;;;;5284074;28;20029;-76
2023/12/09 00:38:42;;;;;;;19.77;5.15;;;;;;;;;;5283265;28;20012;-77
2023/12/09 00:41:13;;;;;;;13.18;3.76;;;;;;;;;;5283790;28;20031;-76
2023/12/09 00:43:45;;;;;;;21.25;5.32;;;;;;;;;;5283721;28;20070;-76
2023/12/09 00:46:16;;;;;;;16.70;4.43;;;;;;;;;;5283366;28;20234;-76
2023/12/09 00:48:47;;;;;;;12.68;3.88;;;;;;;;;;5283783;28;20017;-76
2023/12/09 00:51:19;;;;;;;20.25;4.78;;;;;;;;;;5283669;28;20028;-76
2023/12/09 00:53:50;;;;;;;17.65;4.35;;;;;;;;;;5282427;28;20426;-76
2023/12/09 00:56:23;;;;;;;16.30;4.38;;;;;;;;;;5283493;28;20025;-76
2023/12/09 00:58:54;;;;;;;15.65;4.47;;;;;;;;;;5284045;28;20475;-76
2023/12/09 01:01:25;;;;;;;13.82;4.35;;;;;;;;;;5282508;28;20016;-76
2023/12/09 01:03:56;;;;;;;17.23;4.35;;;;;;;;;;5282476;28;20031;-76
2023/12/09 01:06:28;;;;;;;20.25;4.72;;;;;;;;;;5282627;28;20020;-75
2023/12/09 01:08:59;;;;;;;15.38;5.00;;;;;;;;;;5280353;28;20044;-76
2023/12/09 01:11:30;;;;;;;18.60;4.55;;;;;;;;;;5282490;28;20082;-75
2023/12/09 01:14:01;;;;;;;16.35;5.18;;;;;;;;;;5282072;28;20024;-75
2023/12/09 01:16:33;;;;;;;16.63;4.82;;;;;;;;;;5282817;28;20094;-77
2023/12/09 01:19:04;;;;;;;23.50;5.65;;;;;;;;;;5282622;28;20047;-77
2023/12/09 01:21:35;;;;;;;18.98;5.10;;;;;;;;;;5282378;28;20025;-76
2023/12/09 01:24:06;;;;;;;16.80;4.80;;;;;;;;;;5283074;28;20024;-76
2023/12/09 01:26:38;;;;;;;16.70;5.12;;;;;;;;;;5282912;28;20054;-77
2023/12/09 01:29:09;;;;;;;23.38;6.13;;;;;;;;;;5282054;28;20021;-76
2023/12/09 01:31:40;;;;;;;17.17;5.82;;;;;;;;;;5282507;28;20546;-77
2023/12/09 01:34:11;;;;;;;18.50;5.05;;;;;;;;;;5282643;28;20420;-76
2023/12/09 01:36:42;;;;;;;23.30;6.28;;;;;;;;;;5282034;28;20020;-76
2023/12/09 01:39:13;;;;;;;25.15;6.13;;;;;;;;;;5282355;28;20028;-77
2023/12/09 01:41:45;;;;;;;19.50;4.90;;;;;;;;;;5281837;28;20020;-76
2023/12/09 01:44:16;;;;;;;18.23;5.55;;;;;;;;;;5282718;28;20021;-76
2023/12/09 01:46:48;;;;;;;16.70;5.53;;;;;;;;;;5282564;28;20074;-75
2023/12/09 01:49:19;;;;;;;19.05;5.20;;;;;;;;;;5281790;28;20031;-76
2023/12/09 01:51:50;;;;;;;18.40;5.20;;;;;;;;;;5282254;28;20021;-77
2023/12/09 01:54:21;;;;;;;20.60;5.40;;;;;;;;;;5281723;28;20491;-76
2023/12/09 01:56:53;;;;;;;15.52;4.68;;;;;;;;;;5281586;28;20054;-77
2023/12/09 01:59:25;;;;;;;18.67;4.72;;;;;;;;;;5281781;28;20529;-76
2023/12/09 02:01:56;;;;;;;19.23;5.60;;;;;;;;;;5282481;28;20375;-76
2023/12/09 02:04:27;;;;;;;17.13;5.20;;;;;;;;;;5281369;28;20398;-76
2023/12/09 02:06:58;;;;;;;25.33;6.35;;;;;;;;;;5282061;28;20013;-75
2023/12/09 02:09:29;;;;;;;15.10;5.22;;;;;;;;;;5281873;28;20111;-74
2023/12/09 02:12:21;;;;;;;21.25;5.05;;;;;;;;;;5281408;28;20024;-75
2023/12/09 02:15:01;;;;;;;21.65;5.28;;;;;;;;;;5281513;28;20048;-75
2023/12/09 02:17:36;;;;;;;15.38;4.90;;;;;;;;;;5281424;28;20030;-75
2023/12/09 02:20:11;;;;;;;22.95;5.28;;;;;;;;;;5281693;28;20032;-75
2023/12/09 02:22:42;;;;;;;18.23;5.50;;;;;;;;;;5281891;28;20028;-74
2023/12/09 02:25:13;;;;;;;17.35;4.45;;;;;;;;;;5281212;28;20016;-75
2023/12/09 02:27:52;;;;;;;19.23;4.85;;;;;;;;;;5281632;28;20032;-74
2023/12/09 02:30:41;;;;;;;18.98;5.10;;;;;;;;;;5281164;28;20107;-75
2023/12/09 02:33:14;;;;;;;19.60;5.05;;;;;;;;;;5281166;28;20115;-74
2023/12/09 02:35:46;;;;;;;17.20;4.50;;;;;;;;;;5281676;28;20024;-75
2023/12/09 02:38:18;;;;;;;18.90;5.20;;;;;;;;;;5280902;28;20028;-75
2023/12/09 02:40:50;;;;;;;11.82;4.50;;;;;;;;;;5281903;28;20024;-75
2023/12/09 02:43:21;;;;;;;14.93;4.15;;;;;;;;;;5281311;28;20020;-75
2023/12/09 02:45:52;;;;;;;18.83;5.70;;;;;;;;;;5280999;28;20029;-75
2023/12/09 02:48:24;;;;;;;27.88;6.35;;;;;;;;;;5281051;28;20020;-75
2023/12/09 02:50:55;;;;;;;23.50;5.38;;;;;;;;;;5282021;28;20029;-75
2023/12/09 02:53:26;;;;;;;19.02;5.45;;;;;;;;;;5280353;28;20036;-75
2023/12/09 02:55:57;;;;;;;15.73;5.05;;;;;;;;;;5281484;28;20455;-75
2023/12/09 02:58:28;;;;;;;18.33;5.15;;;;;;;;;;5281663;28;20082;-76
2023/12/09 03:01:00;;;;;;;18.77;4.70;;;;;;;;;;5280695;28;20060;-75
2023/12/09 03:03:31;;;;;;;17.75;4.63;;;;;;;;;;5281403;28;20126;-75
2023/12/09 03:06:02;;;;;;;23.73;5.60;;;;;;;;;;5281029;28;20023;-76
2023/12/09 03:08:33;;;;;;;20.08;4.53;;;;;;;;;;5280847;28;20016;-76
2023/12/09 03:11:05;;;;;;;19.27;4.88;;;;;;;;;;5281124;28;20099;-76
2023/12/09 03:13:37;;;;;;;19.80;5.55;;;;;;;;;;5280259;28;20078;-76
2023/12/09 03:16:08;;;;;;;17.25;3.88;;;;;;;;;;5281341;28;20028;-76
2023/12/09 03:18:39;;;;;;;20.27;5.78;;;;;;;;;;5281128;28;20082;-76
2023/12/09 03:21:14;;;;;;;21.38;5.30;;;;;;;;;;5280135;28;20024;-76
2023/12/09 03:23:46;;;;;;;18.85;4.18;;;;;;;;;;5281024;28;20013;-76
2023/12/09 03:26:17;;;;;;;17.67;3.97;;;;;;;;;;5281230;28;20043;-75
2023/12/09 03:28:49;;;;;;;17.25;4.68;;;;;;;;;;5280581;28;20009;-75
2023/12/09 03:31:20;;;;;;;18.30;4.55;;;;;;;;;;5281623;28;20020;-75
2023/12/09 03:33:51;;;;;;;14.88;3.72;;;;;;;;;;5285185;28;20024;-75
2023/12/09 03:36:22;;;;;;;17.40;3.78;;;;;;;;;;5283965;28;20021;-76
2023/12/09 03:38:54;;;;;;;22.73;3.97;;;;;;;;;;5285236;28;20019;-74
2023/12/09 03:41:25;;;;;;;20.20;3.70;;;;;;;;;;5283975;28;20482;-76
2023/12/09 03:43:56;;;;;;;17.73;3.70;;;;;;;;;;5284828;28;20508;-75
2023/12/09 03:46:27;;;;;;;15.26;3.90;;;;;;;;;;5284961;28;20031;-75
2023/12/09 03:48:59;;;;;;;15.50;3.58;;;;;;;;;;5284058;28;20020;-74
2023/12/09 03:51:30;;;;;;;18.35;4.35;;;;;;;;;;5285041;28;20092;-76
2023/12/09 03:54:01;;;;;;;15.35;3.67;;;;;;;;;;5284306;28;20020;-74
2023/12/09 03:56:32;;;;;;;19.75;3.30;;;;;;;;;;5283961;28;20020;-75
2023/12/09 03:59:03;;;;;;;17.08;3.38;;;;;;;;;;5284669;28;20016;-74
2023/12/09 04:01:35;;;;;;;16.13;3.50;;;;;;;;;;5284392;28;20021;-75
2023/12/09 04:04:06;;;;;;;14.82;3.10;;;;;;;;;;5283627;28;20138;-75
2023/12/09 04:06:37;;;;;;;16.80;3.90;;;;;;;;;;5284618;28;20043;-75
2023/12/09 04:09:12;;;;;;;14.63;3.58;;;;;;;;;;5284449;28;20048;-75
2023/12/09 04:11:43;;;;;;;21.25;3.85;;;;;;;;;;5283511;28;20491;-75
2023/12/09 04:14:14;;;;;;;15.00;3.05;;;;;;;;;;5284135;28;20036;-75
2023/12/09 04:16:45;;;;;;;16.38;2.50;;;;;;;;;;5283351;28;20029;-75
2023/12/09 04:19:16;;;;;;;16.52;3.10;;;;;;;;;;5284067;28;20027;-75
2023/12/09 04:21:48;;;;;;;17.04;2.96;;;;;;;;;;5284164;28;20460;-75
2023/12/09 04:24:19;;;;;;;14.80;2.55;;;;;;;;;;5283299;28;20422;-75
2023/12/09 04:26:50;;;;;;;11.40;2.46;;;;;;;;;;5284370;28;20028;-75
2023/12/09 04:29:21;;;;;;;19.20;2.76;;;;;;;;;;5283801;28;20142;-75
2023/12/09 04:31:52;;;;;;;13.82;2.90;;;;;;;;;;5283690;28;20031;-75
2023/12/09 04:34:23;;;;;;;14.86;3.04;;;;;;;;;;5283608;28;20119;-75
2023/12/09 04:36:54;;;;;;;20.75;3.25;;;;;;;;;;5284279;28;20027;-75
2023/12/09 04:39:26;;;;;;;16.28;2.98;;;;;;;;;;5282898;28;20030;-75
2023/12/09 04:41:57;;;;;;;13.20;2.28;;;;;;;;;;5283937;28;20017;-75
2023/12/09 04:44:28;;;;;;;15.10;3.00;;;;;;;;;;5283613;28;20052;-75
2023/12/09 04:46:59;;;;;;;11.42;2.50;;;;;;;;;;5282944;28;20468;-75
2023/12/09 04:49:31;;;;;;;19.63;2.78;;;;;;;;;;5283288;28;20456;-75
2023/12/09 04:52:03;;;;;;;14.20;3.38;;;;;;;;;;5283079;28;20371;-77
2023/12/09 04:54:35;;;;;;;12.32;2.38;;;;;;;;;;5283156;28;20090;-75
2023/12/09 04:57:06;;;;;;;17.90;3.20;;;;;;;;;;5283753;28;20013;-76
2023/12/09 04:59:37;;;;;;;11.70;2.40;;;;;;;;;;5282718;28;20107;-76
2023/12/09 05:02:08;;;;;;;13.27;2.10;;;;;;;;;;5283288;28;20020;-76
2023/12/09 05:04:39;;;;;;;10.60;2.03;;;;;;;;;;5283174;28;20561;-76
2023/12/09 05:07:10;;;;;;;13.45;2.33;;;;;;;;;;5282636;28;20438;-76
2023/12/09 05:09:42;;;;;;;14.25;2.15;;;;;;;;;;5283444;28;20093;-76
2023/12/09 05:12:14;;;;;;;19.38;3.53;;;;;;;;;;5282936;28;20050;-76
2023/12/09 05:14:45;;;;;;;20.27;3.10;;;;;;;;;;5281935;28;20028;-76
2023/12/09 05:17:16;;;;;;;13.48;2.13;;;;;;;;;;5283231;28;20052;-76
2023/12/09 05:19:47;;;;;;;16.25;2.83;;;;;;;;;;5281856;28;20028;-75
2023/12/09 05:22:18;;;;;;;14.30;2.50;;;;;;;;;;5282933;28;20408;-76
2023/12/09 05:24:51;;;;;;;14.23;3.10;;;;;;;;;;5282825;28;20324;-75
2023/12/09 05:27:22;;;;;;;12.52;2.10;;;;;;;;;;5281372;28;20012;-76
2023/12/09 05:29:56;;;;;;;14.05;2.30;;;;;;;;;;5282906;28;20083;-76
2023/12/09 05:32:27;;;;;;;16.80;2.47;;;;;;;;;;5282497;28;20035;-76
2023/12/09 05:34:59;;;;;;;12.98;2.42;;;;;;;;;;5281894;28;20032;-76
2023/12/09 05:37:30;;;;;;;11.23;1.77;;;;;;;;;;5282843;28;20026;-77
2023/12/09 05:40:02;;;;;;;14.77;2.97;;;;;;;;;;5282628;28;20025;-76
2023/12/09 05:42:33;;;;;;;11.93;1.73;;;;;;;;;;5281878;28;20468;-76
2023/12/09 05:45:04;;;;;;;15.25;2.90;;;;;;;;;;5282580;28;20031;-76
2023/12/09 05:47:36;;;;;;;16.08;3.08;;;;;;;;;;5282502;28;20021;-76
2023/12/09 05:50:08;;;;;;;18.58;3.47;;;;;;;;;;5281980;28;20028;-77
2023/12/09 05:52:40;;;;;;;11.48;2.33;;;;;;;;;;5282722;28;20074;-76
2023/12/09 05:55:14;;;;;;;18.55;3.15;;;;;;;;;;5280791;28;20049;-76
2023/12/09 05:57:45;;;;;;;14.15;2.25;;;;;;;;;;5282202;28;20032;-77
2023/12/09 06:00:16;;;;;;;13.70;2.50;;;;;;;;;;5282082;28;20044;-77
2023/12/09 06:02:47;;;;;;;15.20;2.05;;;;;;;;;;5281424;28;20017;-76
2023/12/09 06:05:19;;;;;;;12.93;1.63;;;;;;;;;;5282173;28;20537;-77
2023/12/09 06:07:50;;;;;;;18.05;2.60;;;;;;;;;;5282184;28;20472;-76
2023/12/09 06:10:21;;;;;;;10.13;1.70;;;;;;;;;;5281045;28;20103;-76
2023/12/09 06:12:53;;;;;;;14.68;2.28;;;;;;;;;;5282278;28;20502;-76
2023/12/09 06:15:24;;;;;;;12.80;1.73;;;;;;;;;;5281714;28;20032;-76
2023/12/09 06:17:55;;;;;;;11.00;2.15;;;;;;;;;;5281742;28;20021;-76
2023/12/09 06:20:26;;;;;;;9.82;1.90;;;;;;;;;;5281675;28;20035;-77
2023/12/09 06:22:57;;;;;;;11.10;1.98;;;;;;;;;;5281753;28;20012;-76
2023/12/09 06:25:30;;;;;;;11.43;1.80;;;;;;;;;;5281337;28;20016;-76
2023/12/09 06:28:01;;;;;;;10.55;2.33;;;;;;;;;;5282058;28;20013;-76
2023/12/09 06:30:33;;;;;;;12.85;2.10;;;;;;;;;;5281078;28;20036;-76
2023/12/09 06:33:04;;;;;;;13.70;1.67;;;;;;;;;;5281800;28;20050;-76
2023/12/09 06:35:35;;;;;;;14.18;2.25;;;;;;;;;;5281560;28;20043;-75
2023/12/09 06:38:06;;;;;;;9.65;1.80;;;;;;;;;;5281260;28;20016;-78
2023/12/09 06:40:38;;;;;;;8.95;1.92;;;;;;;;;;5281940;28;20142;-76
2023/12/09 06:43:09;;;;;;;10.82;1.67;;;;;;;;;;5281540;28;20035;-77
2023/12/09 06:45:40;;;;;;;12.63;1.80;;;;;;;;;;5281236;28;20957;-78
2023/12/09 06:48:11;;;;;;;9.82;1.85;;;;;;;;;;5281669;28;20098;-77
2023/12/09 06:50:43;;;;;;;15.57;2.05;;;;;;;;;;5281933;28;20032;-77
2023/12/09 06:53:15;;;;;;;9.23;1.70;;;;;;;;;;5280646;28;20021;-78
2023/12/09 06:55:46;;;;;;;9.38;1.73;;;;;;;;;;5281469;28;20484;-78
2023/12/09 06:58:17;;;;;;;12.10;2.35;;;;;;;;;;5280797;28;20456;-78
2023/12/09 07:00:48;;;;;;;11.90;2.15;;;;;;;;;;5281528;28;20372;-78
2023/12/09 07:03:19;;;;;;;11.90;1.75;;;;;;;;;;5281666;28;20036;-77
2023/12/09 07:05:51;;;;;;;12.48;1.63;;;;;;;;;;5282185;28;20052;-77
2023/12/09 07:08:22;;;;;;;14.20;1.58;;;;;;;;;;5285493;28;20024;-76
2023/12/09 07:10:56;;;;;;;8.15;1.70;;;;;;;;;;5285974;28;20399;-76
2023/12/09 07:13:27;;;;;;;10.35;1.70;;;;;;;;;;5284909;28;20036;-77
2023/12/09 07:15:58;;;;;;;10.93;2.33;;;;;;;;;;5285784;28;20028;-77
2023/12/09 07:18:30;;;;;;;13.60;1.50;;;;;;;;;;5285710;28;20036;-78
2023/12/09 07:21:01;;;;;;;12.98;1.20;;;;;;;;;;5284576;28;20028;-76
2023/12/09 07:23:33;;;;;;;7.03;1.83;;;;;;;;;;5285653;28;20024;-77
2023/12/09 07:26:04;;;;;;;13.75;1.63;;;;;;;;;;5285645;28;20028;-77
2023/12/09 07:28:35;;;;;;;9.10;1.52;;;;;;;;;;5284725;28;20017;-77
2023/12/09 07:31:06;;;;;;;9.93;1.30;;;;;;;;;;5285117;28;20032;-78
2023/12/09 07:33:38;;;;;;;8.80;1.70;;;;;;;;;;5284386;28;20020;-77
2023/12/09 07:36:09;;;;;;;13.75;1.65;;;;;;;;;;5285181;28;20025;-76
2023/12/09 07:38:40;;;;;;;14.00;1.25;;;;;;;;;;5285262;28;20030;-78
2023/12/09 07:41:11;;;;;;;9.15;1.70;;;;;;;;;;5284297;28;20055;-78
2023/12/09 07:43:43;;;;;;;11.80;1.50;;;;;;;;;;5287146;28;20013;-77
2023/12/09 07:46:14;;;;;;;9.98;1.33;;;;;;;;;;5287102;28;20028;-79
2023/12/09 07:48:45;;;;;;;12.18;1.92;;;;;;;;;;5283823;28;20055;-78
2023/12/09 07:51:16;;;;;;;14.27;1.80;;;;;;;;;;5284831;28;20031;-77
2023/12/09 07:53:47;;;;;;;10.68;1.15;;;;;;;;;;5284567;28;20017;-77
2023/12/09 07:56:18;;;;;;;11.54;1.60;;;;;;;;;;5283951;28;20020;-76
2023/12/09 07:58:50;;;;;;;11.15;1.50;;;;;;;;;;5280217;28;20012;-77
2023/12/09 08:01:21;;;;;;;11.07;1.50;;;;;;;;;;5284016;28;20020;-77
2023/12/09 08:03:52;;;;;;;8.43;1.30;;;;;;;;;;5284129;28;20475;-76
2023/12/09 08:06:23;;;;;;;10.18;1.45;;;;;;;;;;5284082;28;20021;-76
2023/12/09 08:08:54;;;;;;;11.77;1.15;;;;;;;;;;5283812;28;20017;-76
2023/12/09 08:11:25;;;;;;;9.10;1.73;;;;;;;;;;5283003;28;20024;-75
2023/12/09 08:13:58;;;;;;;8.18;0.80;;;;;;;;;;5284216;28;20487;-77
2023/12/09 08:16:30;;;;;;;10.52;1.55;;;;;;;;;;5283694;28;20436;-77
2023/12/09 08:19:01;;;;;;;6.22;1.00;;;;;;;;;;5282864;28;20100;-76
2023/12/09 08:21:36;;;;;;;7.88;1.10;;;;;;;;;;5283485;28;20024;-77
2023/12/09 08:24:07;;;;;;;11.45;1.90;;;;;;;;;;5283528;28;20047;-79
2023/12/09 08:26:39;;;;;;;7.53;1.52;;;;;;;;;;5283494;28;20052;-78
2023/12/09 08:29:14;;;;;;;9.65;1.30;;;;;;;;;;5283506;28;20024;-78
2023/12/09 08:31:49;;;;;;;7.20;0.88;;;;;;;;;;5284357;28;20021;-78
2023/12/09 08:34:20;;;;;;;9.05;1.38;;;;;;;;;;5295032;28;20510;-77
2023/12/09 08:36:51;;;;;;;10.90;1.25;;;;;;;;;;5290625;28;20028;-77
2023/12/09 08:39:23;;;;;;;10.43;1.55;;;;;;;;;;5291100;28;20032;-77
2023/12/09 08:41:54;;;;;;;8.85;1.55;;;;;;;;;;5287660;28;20036;-77
2023/12/09 08:44:25;;;;;;;10.23;1.85;;;;;;;;;;5290192;28;20020;-76
2023/12/09 08:46:57;;;;;;;10.02;1.50;;;;;;;;;;5288153;28;20057;-78
2023/12/09 08:49:29;;;;;;;7.35;0.95;;;;;;;;;;5285940;28;20028;-77
2023/12/09 08:52:00;;;;;;;6.53;0.93;;;;;;;;;;5291800;28;20015;-79
2023/12/09 08:54:31;;;;;;;11.13;1.60;;;;;;;;;;5286305;28;20052;-78
2023/12/09 08:57:02;;;;;;;11.62;1.00;;;;;;;;;;5292000;28;20020;-77
2023/12/09 08:59:34;;;;;;;7.32;1.00;;;;;;;;;;5285769;28;20085;-77
2023/12/09 09:02:05;;;;;;;8.13;1.70;;;;;;;;;;5291944;28;20020;-77
2023/12/09 09:04:36;;;;;;;6.18;0.90;;;;;;;;;;5289472;28;20016;-79
2023/12/09 09:07:07;;;;;;;6.05;0.77;;;;;;;;;;5284682;28;20481;-76
2023/12/09 09:09:39;;;;;;;7.07;0.98;;;;;;;;;;5283484;28;20418;-77
2023/12/09 09:12:10;;;;;;;8.60;1.10;;;;;;;;;;5282899;28;20032;-77
2023/12/09 09:14:41;;;;;;;6.65;0.70;;;;;;;;;;5283558;28;20421;-78
2023/12/09 09:17:12;;;;;;;8.52;0.90;;;;;;;;;;5283264;28;20105;-79
2023/12/09 09:19:44;;;;;;;8.88;1.23;;;;;;;;;;5283205;28;20028;-80
2023/12/09 09:22:15;;;;;;;6.35;0.77;;;;;;;;;;5283732;28;20357;-80
2023/12/09 09:24:47;;;;;;;7.55;0.95;;;;;;;;;;5283822;28;20024;-80
2023/12/09 09:27:19;;;;;;;9.38;0.88;;;;;;;;;;5282897;28;20070;-80
2023/12/09 09:29:50;;;;;;;13.60;0.93;;;;;;;;;;5282658;28;20386;-81
2023/12/09 09:32:21;;;;;;;8.02;1.13;;;;;;;;;;5283013;28;20024;-81
2023/12/09 09:34:52;;;;;;;4.93;0.90;;;;;;;;;;5283410;28;20036;-81
2023/12/09 09:37:24;;;;;;;6.18;0.57;;;;;;;;;;5284430;28;20016;-81
2023/12/09 09:39:55;;;;;;;6.55;0.60;;;;;;;;;;5284018;28;20024;-82
2023/12/09 09:42:36;;;;;;;9.48;0.80;;;;;;;;;;5283012;28;20032;-82
2023/12/09 09:45:16;;;;;;;8.50;1.80;;;;;;;;;;5282704;28;20055;-80
2023/12/09 09:47:48;;;;;;;2.58;0.50;;;;;;;;;;5282127;28;20024;-81
2023/12/09 09:50:42;;;;;;;9.35;1.25;;;;;;;;;;5299143;27;20413;-81
2023/12/09 09:53:18;;;;;;;6.43;1.02;;;;;;;;;;5300166;28;20032;-81
2023/12/09 09:55:50;;;;;;;7.85;0.77;;;;;;;;;;5299361;28;20043;-81
2023/12/09 09:58:21;;;;;;;6.25;0.90;;;;;;;;;;5299830;28;20044;-82
2023/12/09 10:00:55;;;;;;;6.65;1.45;;;;;;;;;;5300519;27;20028;-82
2023/12/09 10:03:27;;;;;;;6.57;0.50;;;;;;;;;;5298825;28;20017;-81
2023/12/09 10:05:58;;;;;;;4.63;0.85;;;;;;;;;;5299748;28;20032;-80
2023/12/09 10:08:29;;;;;;;6.90;0.60;;;;;;;;;;5299217;28;20459;-84
2023/12/09 10:11:01;;;;;;;4.45;0.70;;;;;;;;;;5299596;27;20024;-83
2023/12/09 10:13:32;;;;;;;7.93;0.90;;;;;;;;;;5299647;28;20032;-82
2023/12/09 10:16:03;;;;;;;9.27;1.10;;;;;;;;;;5298937;28;20035;-78
2023/12/09 10:18:35;;;;;;;5.70;0.60;;;;;;;;;;5299564;28;20048;-82
2023/12/09 10:21:07;;;;;;;6.13;0.93;;;;;;;;;;5299581;28;20074;-82
2023/12/09 10:23:39;;;;;;;7.10;0.90;;;;;;;;;;5298117;28;20060;-81
2023/12/09 10:26:11;;;;;;;4.60;0.70;;;;;;;;;;5299243;28;20576;-81
2023/12/09 10:28:42;;;;;;;6.53;0.90;;;;;;;;;;5298770;28;20479;-81
2023/12/09 10:31:13;;;;;;;4.88;0.90;;;;;;;;;;5298603;28;20032;-84
2023/12/09 10:33:45;;;;;;;6.22;0.60;;;;;;;;;;5299238;28;20460;-82
2023/12/09 10:36:16;;;;;;;11.70;0.70;;;;;;;;;;5297277;28;20089;-82
2023/12/09 10:38:51;;;;;;;6.45;0.80;;;;;;;;;;5299323;28;20456;-81
2023/12/09 10:41:23;;;;;;;6.32;1.00;;;;;;;;;;5298865;27;20051;-82
2023/12/09 10:43:54;;;;;;;6.63;0.80;;;;;;;;;;5298454;27;20497;-82
2023/12/09 10:46:25;;;;;;;4.40;0.80;;;;;;;;;;5298698;28;20442;-81
2023/12/09 10:48:57;;;;;;;5.60;0.63;;;;;;;;;;5297371;28;20491;-80
2023/12/09 10:51:28;;;;;;;5.05;0.57;;;;;;;;;;5295703;28;20089;-77
2023/12/09 10:53:59;;;;;;;3.72;0.60;;;;;;;;;;5296744;28;20073;-78
2023/12/09 10:56:30;;;;;;;5.07;0.60;;;;;;;;;;5297082;28;20016;-80
2023/12/09 10:59:02;;;;;;;7.13;0.63;;;;;;;;;;5295858;28;20024;-81
2023/12/09 11:01:34;;;;;;;6.18;0.47;;;;;;;;;;5283888;28;20021;-81
2023/12/09 11:04:05;;;;;;;6.07;0.40;;;;;;;;;;5282245;28;20107;-80
2023/12/09 11:06:37;;;;;;;5.32;0.50;;;;;;;;;;5282592;28;20033;-79
2023/12/09 11:09:09;;;;;;;8.15;0.60;;;;;;;;;;5282304;28;20471;-80
2023/12/09 11:11:43;;;;;;;4.25;0.70;;;;;;;;;;5282301;28;20085;-81
2023/12/09 11:14:14;;;;;;;6.28;0.70;;;;;;;;;;5282360;28;20028;-80
2023/12/09 11:16:46;;;;;;;4.90;0.65;;;;;;;;;;5282439;28;20021;-79
2023/12/09 11:19:17;;;;;;;4.97;0.80;;;;;;;;;;5282416;28;20025;-79
2023/12/09 11:21:49;;;;;;;3.80;0.40;;;;;;;;;;5282796;28;20017;-78
2023/12/09 11:24:27;;;;;;;5.72;0.60;;;;;;;;;;5282677;28;20436;-79
2023/12/09 11:26:59;;;;;;;5.07;0.60;;;;;;;;;;5281466;28;20137;-79
2023/12/09 11:29:30;;;;;;;4.70;0.40;;;;;;;;;;5283483;28;20056;-81
2023/12/09 11:32:06;;;;;;;4.13;0.50;;;;;;;;;;5284349;28;20375;-80
2023/12/09 11:34:40;;;;;;;5.60;0.60;;;;;;;;;;5286445;28;20029;-80
2023/12/09 11:37:13;;;;;;;5.07;0.40;;;;;;;;;;5283923;28;20104;-81
2023/12/09 11:39:44;;;;;;;3.17;0.30;;;;;;;;;;5283121;28;20464;-82
2023/12/09 11:42:15;;;;;;;2.25;0.30;;;;;;;;;;5284082;28;20037;-77
2023/12/09 11:44:47;;;;;;;4.57;0.50;;;;;;;;;;5284063;28;20009;-79
2023/12/09 11:47:18;;;;;;;6.55;0.52;;;;;;;;;;5283069;28;20020;-78
2023/12/09 11:49:49;;;;;;;3.92;0.40;;;;;;;;;;5283316;28;20499;-77
2023/12/09 11:52:21;;;;;;;3.30;0.52;;;;;;;;;;5283489;28;20481;-78
2023/12/09 11:55:02;;;;;;;3.83;0.68;;;;;;;;;;5283727;28;20376;-79
2023/12/09 11:57:33;;;;;;;3.10;0.30;;;;;;;;;;5283830;28;20013;-77
2023/12/09 12:00:06;;;;;;;2.58;0.20;;;;;;;;;;5283764;28;20020;-79
2023/12/09 12:02:38;;;;;;;1.55;0.40;;;;;;;;;;5282991;28;20032;-82
2023/12/09 12:05:11;;;;;;;4.03;0.32;;;;;;;;;;5283654;28;20491;-80
2023/12/09 12:07:42;;;;;;;4.40;0.82;;;;;;;;;;5282888;28;20040;-81
2023/12/09 12:10:14;;;;;;;1.95;0.47;;;;;;;;;;5283605;28;20067;-81
2023/12/09 12:12:45;;;;;;;3.75;0.30;;;;;;;;;;5282412;28;20017;-81
2023/12/09 12:15:17;;;;;;;2.53;0.40;;;;;;;;;;5282618;28;20025;-80
2023/12/09 12:17:48;;;;;;;1.60;0.20;;;;;;;;;;5283743;28;20025;-80
2023/12/09 12:20:20;;;;;;;2.30;0.30;;;;;;;;;;5285558;28;20013;-82
2023/12/09 12:22:51;;;;;;;1.08;0.20;;;;;;;;;;5284389;28;20020;-83
2023/12/09 12:25:24;;;;;;;2.40;0.15;;;;;;;;;;5282728;28;20104;-78
2023/12/09 12:27:58;;;;;;;1.92;0.20;;;;;;;;;;5283477;28;20020;-82
2023/12/09 12:30:30;;;;;;;3.03;0.20;;;;;;;;;;5282608;28;20373;-82
2023/12/09 12:33:03;;;;;;;0.98;0.20;;;;;;;;;;5282910;28;20017;-83
2023/12/09 12:35:34;;;;;;;2.58;0.38;;;;;;;;;;5283081;28;20527;-81
2023/12/09 12:38:05;;;;;;;1.55;0.20;;;;;;;;;;5282119;28;20020;-81
2023/12/09 12:40:37;;;;;;;0.73;0.13;;;;;;;;;;5283256;28;20028;-81
2023/12/09 12:43:09;;;;;;;2.75;0.20;;;;;;;;;;5282261;28;20024;-78
2023/12/09 12:45:41;;;;;;;2.05;0.30;;;;;;;;;;5282759;28;20029;-82
2023/12/09 12:48:12;;;;;;;4.88;0.20;;;;;;;;;;5282568;28;20028;-81
2023/12/09 12:50:49;;;;;;;2.05;0.10;;;;;;;;;;5282090;28;20035;-83
2023/12/09 12:53:24;;;;;;;0.85;0.20;;;;;;;;;;5282118;28;20024;-83
2023/12/09 12:55:56;;;;;;;1.50;0.20;;;;;;;;;;5282691;28;20464;-84
2023/12/09 12:58:27;;;;;;;0.68;0.17;;;;;;;;;;5281686;28;20029;-84
2023/12/09 13:00:58;;;;;;;1.98;0.38;;;;;;;;;;5282218;28;20107;-84
2023/12/09 13:03:29;;;;;;;1.17;0.10;;;;;;;;;;5282824;28;20565;-85
2023/12/09 13:06:01;;;;;;;0.90;0.15;;;;;;;;;;5281910;28;20083;-85
2023/12/09 13:08:32;;;;;;;2.63;0.30;;;;;;;;;;5282202;28;20111;-84
2023/12/09 13:11:03;;;;;;;2.55;0.20;;;;;;;;;;5281478;28;20091;-86
2023/12/09 13:13:34;;;;;;;1.58;0.20;;;;;;;;;;5282326;28;20027;-83
2023/12/09 13:16:07;;;;;;;1.60;0.22;;;;;;;;;;5282497;28;20027;-83
2023/12/09 13:18:38;;;;;;;2.15;0.10;;;;;;;;;;5281632;28;20020;-82
2023/12/09 13:21:09;;;;;;;1.60;0.10;;;;;;;;;;5281786;28;20494;-82
2023/12/09 13:23:40;;;;;;;1.15;0.10;;;;;;;;;;5281867;28;20021;-84
2023/12/09 13:26:12;;;;;;;2.15;0.30;;;;;;;;;;5282229;28;20021;-83
2023/12/09 13:28:43;;;;;;;1.13;0.20;;;;;;;;;;5282397;28;20463;-83
2023/12/09 13:31:15;;;;;;;0.68;0.10;;;;;;;;;;5282029;28;20020;-81
2023/12/09 13:33:47;;;;;;;1.83;0.30;;;;;;;;;;5281282;28;20009;-80
2023/12/09 13:36:18;;;;;;;2.88;0.30;;;;;;;;;;5281915;28;20047;-81
2023/12/09 13:38:51;;;;;;;1.92;0.13;;;;;;;;;;5282087;28;20016;-82
2023/12/09 13:41:22;;;;;;;1.17;0.20;;;;;;;;;;5281063;28;20024;-80
2023/12/09 13:43:54;;;;;;;0.85;0.10;;;;;;;;;;5282161;28;20020;-83
2023/12/09 13:46:25;;;;;;;5.53;0.20;;;;;;;;;;5281463;28;20030;-87
2023/12/09 13:48:56;;;;;;;1.45;0.20;;;;;;;;;;5281906;28;20055;-87
2023/12/09 13:51:28;;;;;;;2.33;0.40;;;;;;;;;;5282555;28;20074;-85
2023/12/09 13:53:59;;;;;;;1.08;0.28;;;;;;;;;;5281426;28;20035;-82
2023/12/09 13:56:30;;;;;;;1.63;0.20;;;;;;;;;;5281934;28;20016;-84
2023/12/09 13:59:02;;;;;;;2.80;0.30;;;;;;;;;;5281986;28;20051;-81
2023/12/09 14:01:34;;;;;;;1.35;0.25;;;;;;;;;;5281091;28;20048;-81
2023/12/09 14:04:05;;;;;;;1.83;0.60;;;;;;;;;;5282097;28;20051;-81
2023/12/09 14:06:36;;;;;;;1.95;0.30;;;;;;;;;;5281123;28;20020;-83
2023/12/09 14:09:08;;;;;;;0.93;0.20;;;;;;;;;;5281177;28;20369;-82
2023/12/09 14:11:40;;;;;;;0.57;0.20;;;;;;;;;;5281750;28;20303;-83
2023/12/09 14:14:11;;;;;;;1.27;0.20;;;;;;;;;;5281622;28;20044;-83
2023/12/09 14:16:43;;;;;;;1.90;0.22;;;;;;;;;;5281398;28;20448;-83
2023/12/09 14:19:14;;;;;;;1.23;0.10;;;;;;;;;;5281918;28;20103;-82
2023/12/09 14:21:45;;;;;;;0.88;0.30;;;;;;;;;;5280991;28;20070;-82
2023/12/09 14:24:18;;;;;;;0.93;0.20;;;;;;;;;;5281428;28;20498;-83
2023/12/09 14:26:49;;;;;;;1.10;0.15;;;;;;;;;;5281610;28;20024;-83
2023/12/09 14:29:20;;;;;;;1.55;0.10;;;;;;;;;;5280770;28;20029;-84
2023/12/09 14:31:51;;;;;;;0.88;0.10;;;;;;;;;;5281948;28;20012;-83
2023/12/09 14:34:25;;;;;;;0.30;0.10;;;;;;;;;;5281233;28;20111;-84
2023/12/09 14:36:56;;;;;;;0.65;0.10;;;;;;;;;;5284250;28;20328;-83
2023/12/09 14:39:28;;;;;;;0.70;0.10;;;;;;;;;;5285499;28;20028;-84
2023/12/09 14:41:59;;;;;;;1.10;0.10;;;;;;;;;;5285314;28;20020;-84
2023/12/09 14:44:31;;;;;;;1.67;0.08;;;;;;;;;;5284599;28;20089;-82
2023/12/09 14:47:02;;;;;;;0.38;0.10;;;;;;;;;;5285057;28;20021;-80
2023/12/09 14:49:33;;;;;;;0.30;0.10;;;;;;;;;;5284151;28;20045;-83
2023/12/09 14:52:06;;;;;;;1.85;0.10;;;;;;;;;;5285045;28;20375;-85
2023/12/09 14:54:37;;;;;;;0.85;0.10;;;;;;;;;;5285164;28;20017;-82
2023/12/09 14:57:08;;;;;;;0.65;0.10;;;;;;;;;;5284338;28;20035;-80
2023/12/09 14:59:39;;;;;;;1.20;0.20;;;;;;;;;;5285009;28;20479;-81
2023/12/09 15:02:11;;;;;;;0.50;0.10;;;;;;;;;;5285843;28;20108;-81